createdAt,value
2023-04-16T00:00:14.599Z,86.50
2023-04-16T00:02:42.717Z,86.13
2023-04-16T00:05:13.576Z,86.05
2023-04-16T00:07:42.262Z,85.82
2023-04-16T00:10:10.595Z,86.26
2023-04-16T00:12:38.617Z,87.25
2023-04-16T00:15:07.358Z,87.48
2023-04-16T00:17:35.382Z,86.52
2023-04-16T00:20:03.578Z,86.75
2023-04-16T00:22:32.983Z,87.57
2023-04-16T00:25:00.915Z,88.60
2023-04-16T00:27:28.853Z,89.22
2023-04-16T00:29:56.846Z,88.05
2023-04-16T00:32:24.953Z,87.88
2023-04-16T00:34:53.001Z,86.81
2023-04-16T00:37:20.975Z,85.39
2023-04-16T00:39:50.321Z,85.11
2023-04-16T00:42:18.237Z,86.36
2023-04-16T00:44:46.203Z,87.69
2023-04-16T00:47:14.205Z,88.61
2023-04-16T00:49:42.560Z,89.69
2023-04-16T00:52:12.685Z,90.71
2023-04-16T00:54:41.131Z,92.41
2023-04-16T00:57:11.200Z,93.42
2023-04-16T00:59:39.145Z,94.99
2023-04-16T01:02:07.419Z,96.33
2023-04-16T01:04:36.464Z,97.57
2023-04-16T01:07:04.517Z,98.84
2023-04-16T01:09:32.408Z,98.32
2023-04-16T01:12:00.476Z,97.17
2023-04-16T01:14:29.772Z,96.61
2023-04-16T01:16:57.758Z,95.94
2023-04-16T01:19:25.767Z,94.90
2023-04-16T01:21:55.044Z,93.92
2023-04-16T01:24:23.041Z,92.99
2023-04-16T01:26:50.966Z,92.57
2023-04-16T01:29:18.837Z,92.44
2023-04-16T01:31:47.490Z,91.47
2023-04-16T01:34:15.537Z,91.26
2023-04-16T01:36:43.519Z,90.61
2023-04-16T01:39:15.750Z,89.12
2023-04-16T01:41:43.987Z,88.74
2023-04-16T01:44:12.003Z,87.31
2023-04-16T01:46:40.796Z,87.15
2023-04-16T01:49:08.981Z,86.74
2023-04-16T01:51:37.037Z,87.44
2023-04-16T01:54:05.105Z,88.42
2023-04-16T01:56:35.554Z,87.74
2023-04-16T01:59:03.521Z,86.25
2023-04-16T02:01:31.860Z,86.51
2023-04-16T02:04:00.318Z,88.29
2023-04-16T02:06:28.644Z,88.09
2023-04-16T02:08:56.705Z,88.57
2023-04-16T02:11:24.684Z,88.70
2023-04-16T02:13:54.026Z,89.96
2023-04-16T02:16:21.953Z,91.11
2023-04-16T02:18:49.985Z,92.59
2023-04-16T02:21:18.026Z,93.61
2023-04-16T02:23:47.978Z,92.95
2023-04-16T02:26:15.954Z,93.03
2023-04-16T02:28:43.883Z,92.72
2023-04-16T02:31:14.981Z,92.91
2023-04-16T02:33:42.945Z,92.39
2023-04-16T02:36:12.929Z,91.65
2023-04-16T02:38:40.940Z,90.23
2023-04-16T02:41:08.955Z,90.44
2023-04-16T02:43:36.993Z,90.65
2023-04-16T02:46:05.089Z,90.28
2023-04-16T02:48:34.497Z,91.45
2023-04-16T02:51:02.473Z,91.99
2023-04-16T02:53:30.435Z,91.66
2023-04-16T02:55:58.461Z,92.47
2023-04-16T02:58:27.569Z,92.16
2023-04-16T03:00:56.089Z,92.70
2023-04-16T03:03:24.130Z,90.87
2023-04-16T03:05:53.504Z,90.55
2023-04-16T03:08:21.439Z,90.12
2023-04-16T03:10:49.432Z,89.12
2023-04-16T03:13:17.397Z,88.75
2023-04-16T03:15:49.769Z,88.77
2023-04-16T03:18:17.859Z,89.10
2023-04-16T03:20:45.956Z,88.91
2023-04-16T03:23:15.297Z,89.63
2023-04-16T03:25:46.709Z,89.92
2023-04-16T03:28:14.712Z,91.18
2023-04-16T03:30:42.629Z,91.31
2023-04-16T03:33:10.812Z,91.09
2023-04-16T03:35:38.834Z,91.04
2023-04-16T03:38:06.807Z,90.38
2023-04-16T03:40:36.155Z,88.35
2023-04-16T03:43:04.111Z,87.92
2023-04-16T03:45:32.045Z,87.75
2023-04-16T03:47:59.994Z,86.42
2023-04-16T03:50:27.974Z,86.26
2023-04-16T03:52:56.033Z,86.59
2023-04-16T03:55:23.966Z,86.44
2023-04-16T03:57:53.270Z,86.20
2023-04-16T04:00:21.386Z,85.80
2023-04-16T04:02:49.390Z,84.72
2023-04-16T04:05:17.741Z,85.61
2023-04-16T04:07:45.790Z,84.49
2023-04-16T04:10:14.125Z,85.25
2023-04-16T04:12:42.069Z,84.78
2023-04-16T04:15:13.083Z,84.53
2023-04-16T04:17:41.136Z,85.37
2023-04-16T04:20:09.785Z,84.73
2023-04-16T04:22:37.739Z,85.12
2023-04-16T04:25:06.437Z,84.29
2023-04-16T04:27:34.379Z,83.85
2023-04-16T04:30:02.392Z,83.62
2023-04-16T04:32:31.750Z,83.64
2023-04-16T04:35:01.294Z,82.60
2023-04-16T04:37:30.604Z,82.54
2023-04-16T04:39:58.546Z,82.14
2023-04-16T04:42:27.303Z,81.75
2023-04-16T04:44:55.249Z,80.95
2023-04-16T04:47:23.256Z,81.15
2023-04-16T04:49:52.792Z,80.29
2023-04-16T04:52:21.610Z,80.66
2023-04-16T04:54:49.609Z,80.59
2023-04-16T04:57:17.690Z,80.36
2023-04-16T04:59:45.704Z,80.26
2023-04-16T05:02:13.723Z,80.12
2023-04-16T05:04:41.926Z,79.92
2023-04-16T05:07:11.317Z,79.69
2023-04-16T05:09:39.243Z,80.19
2023-04-16T05:12:07.269Z,80.37
2023-04-16T05:14:36.366Z,80.02
2023-04-16T05:17:04.384Z,79.79
2023-04-16T05:19:32.505Z,79.68
2023-04-16T05:22:02.500Z,80.15
2023-04-16T05:24:31.843Z,79.74
2023-04-16T05:26:59.789Z,80.36
2023-04-16T05:29:27.720Z,80.05
2023-04-16T05:31:55.672Z,80.13
2023-04-16T05:34:23.660Z,79.94
2023-04-16T05:36:51.609Z,79.08
2023-04-16T05:39:19.912Z,77.89
2023-04-16T05:41:49.288Z,76.93
2023-04-16T05:44:17.213Z,76.80
2023-04-16T05:46:45.176Z,76.01
2023-04-16T05:49:13.105Z,76.49
2023-04-16T05:51:41.210Z,76.42
2023-04-16T05:54:09.139Z,76.13
2023-04-16T05:56:37.162Z,76.25
2023-04-16T05:59:06.531Z,76.66
2023-04-16T06:01:35.748Z,76.51
2023-04-16T06:04:04.831Z,77.35
2023-04-16T06:06:33.121Z,77.31
2023-04-16T06:09:01.220Z,76.90
2023-04-16T06:11:30.931Z,77.10
2023-04-16T06:13:58.880Z,77.03
2023-04-16T06:16:28.261Z,77.03
2023-04-16T06:18:56.588Z,76.62
2023-04-16T06:21:24.734Z,76.64
2023-04-16T06:23:52.875Z,75.36
2023-04-16T06:26:20.882Z,73.52
2023-04-16T06:28:49.090Z,73.36
2023-04-16T06:31:17.163Z,72.74
2023-04-16T06:33:46.764Z,71.99
2023-04-16T06:36:14.991Z,70.92
2023-04-16T06:38:43.012Z,71.66
2023-04-16T06:41:11.045Z,70.96
2023-04-16T06:43:39.178Z,71.46
2023-04-16T06:46:07.128Z,70.46
2023-04-16T06:48:35.110Z,69.09
2023-04-16T06:51:04.649Z,69.00
2023-04-16T06:53:33.112Z,67.21
2023-04-16T06:56:01.089Z,67.86
2023-04-16T06:58:29.550Z,68.15
2023-04-16T07:00:57.713Z,68.90
2023-04-16T07:03:26.480Z,69.10
2023-04-16T07:05:54.896Z,69.82
2023-04-16T07:08:26.350Z,69.30
2023-04-16T07:10:55.005Z,69.52
2023-04-16T07:13:23.264Z,69.11
2023-04-16T07:15:51.249Z,69.69
2023-04-16T07:18:20.706Z,69.95
2023-04-16T07:20:49.477Z,70.53
2023-04-16T07:23:17.463Z,70.55
2023-04-16T07:25:46.816Z,71.00
2023-04-16T07:28:16.704Z,70.37
2023-04-16T07:30:44.889Z,69.36
2023-04-16T07:33:12.818Z,68.39
2023-04-16T07:35:40.772Z,69.11
2023-04-16T07:38:08.698Z,68.35
2023-04-16T07:40:38.614Z,67.69
2023-04-16T07:43:08.368Z,67.87
2023-04-16T07:45:36.410Z,68.84
2023-04-16T07:48:05.450Z,67.58
2023-04-16T07:50:33.715Z,67.63
2023-04-16T07:53:01.755Z,66.91
2023-04-16T07:55:29.758Z,66.30
2023-04-16T07:57:57.688Z,65.95
2023-04-16T08:00:27.993Z,65.83
2023-04-16T08:02:56.581Z,66.26
2023-04-16T08:05:24.785Z,66.52
2023-04-16T08:07:52.816Z,66.58
2023-04-16T08:10:20.851Z,64.45
2023-04-16T08:12:48.767Z,62.71
2023-04-16T08:15:16.849Z,60.96
2023-04-16T08:17:46.379Z,59.55
2023-04-16T08:20:17.020Z,57.40
2023-04-16T08:22:47.301Z,55.64
2023-04-16T08:25:15.654Z,53.50
2023-04-16T08:27:43.806Z,51.96
2023-04-16T08:30:12.295Z,52.46
2023-04-16T08:32:40.415Z,53.67
2023-04-16T08:35:10.970Z,53.74
2023-04-16T08:37:38.987Z,53.17
2023-04-16T08:40:08.274Z,52.90
2023-04-16T08:42:45.062Z,52.30
2023-04-16T08:45:17.929Z,50.98
2023-04-16T08:47:48.172Z,51.51
2023-04-16T08:50:18.935Z,50.11
2023-04-16T08:52:52.066Z,49.78
2023-04-16T08:55:22.582Z,48.30
2023-04-16T08:57:54.608Z,47.02
2023-04-16T09:00:22.961Z,48.37
2023-04-16T09:02:51.844Z,47.90
2023-04-16T09:05:25.554Z,47.75
2023-04-16T09:07:54.322Z,48.64
2023-04-16T09:10:23.052Z,48.55
2023-04-16T09:12:51.307Z,48.22
2023-04-16T09:15:22.197Z,47.12
2023-04-16T09:17:50.200Z,47.67
2023-04-16T09:20:18.211Z,48.11
2023-04-16T09:22:48.481Z,46.30
2023-04-16T09:25:16.676Z,47.49
2023-04-16T09:27:45.460Z,47.48
2023-04-16T09:30:24.056Z,46.84
2023-04-16T09:32:53.245Z,46.41
2023-04-16T09:35:21.711Z,46.03
2023-04-16T09:37:58.987Z,42.83
2023-04-16T09:40:30.522Z,43.48
2023-04-16T09:43:00.971Z,44.23
2023-04-16T09:45:32.858Z,44.95
2023-04-16T09:48:05.726Z,44.70
2023-04-16T09:50:33.805Z,44.58
2023-04-16T09:53:04.690Z,44.03
2023-04-16T09:55:33.814Z,43.76
2023-04-16T09:58:02.733Z,43.61
2023-04-16T10:00:31.919Z,44.04
2023-04-16T10:03:06.874Z,44.98
2023-04-16T10:05:35.684Z,44.92
2023-04-16T10:08:12.294Z,43.73
2023-04-16T10:10:40.517Z,44.92
2023-04-16T10:13:08.964Z,45.11
2023-04-16T10:15:37.306Z,45.87
2023-04-16T10:18:06.426Z,45.30
2023-04-16T10:20:34.589Z,44.77
2023-04-16T10:23:04.871Z,46.08
2023-04-16T10:25:33.732Z,45.14
2023-04-16T10:28:01.921Z,45.09
2023-04-16T10:30:30.601Z,44.79
2023-04-16T10:33:00.563Z,45.34
2023-04-16T10:35:28.774Z,45.06
2023-04-16T10:37:58.129Z,45.25
2023-04-16T10:40:29.536Z,44.81
2023-04-16T10:42:58.266Z,43.74
2023-04-16T10:45:33.693Z,41.31
2023-04-16T10:48:08.719Z,39.59
2023-04-16T10:50:39.769Z,37.60
2023-04-16T10:53:25.774Z,36.91
2023-04-16T10:56:13.065Z,37.07
2023-04-16T10:58:41.232Z,38.22
2023-04-16T11:01:13.437Z,37.78
2023-04-16T11:03:48.451Z,36.75
2023-04-16T11:06:18.068Z,35.94
2023-04-16T11:08:54.432Z,38.28
2023-04-16T11:11:25.004Z,38.87
2023-04-16T11:13:58.006Z,39.35
2023-04-16T11:16:28.466Z,40.42
2023-04-16T11:18:57.228Z,41.18
2023-04-16T11:21:26.727Z,41.65
2023-04-16T11:23:55.182Z,42.85
2023-04-16T11:26:28.912Z,43.56
2023-04-16T11:28:57.509Z,44.00
2023-04-16T11:31:27.345Z,44.10
2023-04-16T11:33:57.884Z,44.14
2023-04-16T11:36:27.837Z,44.23
2023-04-16T11:39:03.787Z,44.66
2023-04-16T11:41:33.231Z,44.69
2023-04-16T11:44:01.411Z,43.88
2023-04-16T11:46:40.150Z,43.89
2023-04-16T11:49:08.349Z,44.98
2023-04-16T11:51:41.154Z,44.78
2023-04-16T11:54:12.315Z,43.83
2023-04-16T11:56:47.882Z,43.49
2023-04-16T11:59:17.748Z,44.15
2023-04-16T12:01:49.755Z,43.81
2023-04-16T12:04:20.322Z,43.20
2023-04-16T12:07:11.374Z,43.94
2023-04-16T12:09:41.060Z,43.72
2023-04-16T12:12:31.179Z,42.57
2023-04-16T12:15:03.267Z,42.41
2023-04-16T12:17:31.526Z,42.75
2023-04-16T12:20:00.787Z,42.63
2023-04-16T12:22:30.473Z,42.30
2023-04-16T12:25:03.109Z,42.09
2023-04-16T12:27:47.052Z,42.42
2023-04-16T12:30:16.220Z,42.77
2023-04-16T12:32:46.056Z,42.38
2023-04-16T12:35:14.521Z,42.38
2023-04-16T12:37:42.635Z,42.30
2023-04-16T12:40:11.518Z,42.95
2023-04-16T12:42:39.612Z,44.33
2023-04-16T12:45:09.614Z,44.31
2023-04-16T12:47:37.504Z,44.35
2023-04-16T12:50:06.085Z,44.49
2023-04-16T12:52:34.084Z,45.75
2023-04-16T12:55:03.063Z,46.12
2023-04-16T12:57:31.183Z,46.33
2023-04-16T13:00:02.117Z,46.61
2023-04-16T13:02:32.535Z,46.68
2023-04-16T13:05:00.666Z,46.60
2023-04-16T13:07:29.195Z,45.55
2023-04-16T13:09:57.118Z,45.49
2023-04-16T13:12:25.060Z,45.42
2023-04-16T13:14:53.070Z,45.90
2023-04-16T13:17:21.116Z,45.92
2023-04-16T13:19:50.446Z,46.56
2023-04-16T13:22:18.682Z,47.17
2023-04-16T13:24:46.983Z,46.51
2023-04-16T13:27:16.175Z,47.21
2023-04-16T13:29:44.696Z,47.75
2023-04-16T13:32:13.838Z,48.17
2023-04-16T13:34:42.051Z,48.30
2023-04-16T13:37:11.469Z,48.87
2023-04-16T13:39:39.411Z,49.63
2023-04-16T13:42:07.523Z,49.83
2023-04-16T13:44:35.589Z,50.93
2023-04-16T13:47:03.753Z,51.91
2023-04-16T13:49:35.649Z,53.20
2023-04-16T13:52:04.071Z,54.14
2023-04-16T13:54:33.605Z,55.30
2023-04-16T13:57:03.157Z,55.17
2023-04-16T13:59:31.225Z,55.84
2023-04-16T14:01:59.232Z,55.87
2023-04-16T14:04:27.306Z,55.51
2023-04-16T14:06:55.503Z,55.63
2023-04-16T14:09:23.479Z,57.15
2023-04-16T14:11:53.039Z,59.25
2023-04-16T14:14:21.042Z,60.47
2023-04-16T14:16:49.276Z,62.15
2023-04-16T14:19:17.568Z,63.73
2023-04-16T14:21:45.813Z,65.08
2023-04-16T14:24:14.173Z,66.21
2023-04-16T14:26:44.254Z,67.36
2023-04-16T14:29:13.936Z,69.15
2023-04-16T14:31:42.159Z,71.02
2023-04-16T14:34:10.414Z,77.28
2023-04-16T14:36:38.440Z,83.32
2023-04-16T14:39:06.591Z,87.18
2023-04-16T14:41:34.641Z,88.77
2023-04-16T14:44:04.287Z,92.52
2023-04-16T14:46:33.774Z,98.26
2023-04-16T14:49:02.160Z,100.00
2023-04-16T14:51:30.171Z,100.00
2023-04-16T14:53:58.382Z,100.00
2023-04-16T14:56:26.495Z,100.00
2023-04-16T14:58:54.496Z,100.00
2023-04-16T15:01:22.622Z,100.00
2023-04-16T15:03:52.202Z,100.00
2023-04-16T15:06:20.350Z,100.00
2023-04-16T15:08:48.400Z,100.00
2023-04-16T15:11:16.398Z,100.00
2023-04-16T15:13:44.381Z,100.00
2023-04-16T15:16:13.081Z,100.00
2023-04-16T15:18:41.185Z,100.00
2023-04-16T15:21:12.526Z,100.00
2023-04-16T15:23:40.866Z,100.00
2023-04-16T15:26:08.987Z,100.00
2023-04-16T15:28:36.987Z,100.00
2023-04-16T15:31:05.233Z,100.00
2023-04-16T15:33:33.443Z,100.00
2023-04-16T15:36:01.521Z,100.00
2023-04-16T15:38:31.361Z,100.00
2023-04-16T15:41:00.956Z,100.00
2023-04-16T15:43:29.993Z,100.00
2023-04-16T15:45:57.988Z,100.00
2023-04-16T15:48:26.104Z,100.00
2023-04-16T15:50:55.761Z,100.00
2023-04-16T15:53:24.127Z,100.00
2023-04-16T15:55:53.978Z,100.00
2023-04-16T15:58:23.069Z,100.00
2023-04-16T16:00:51.054Z,100.00
2023-04-16T16:03:19.592Z,100.00
2023-04-16T16:05:48.602Z,100.00
2023-04-16T16:08:16.885Z,100.00
2023-04-16T16:10:44.905Z,100.00
2023-04-16T16:13:18.120Z,100.00
2023-04-16T16:15:47.189Z,100.00
2023-04-16T16:18:15.190Z,100.00
2023-04-16T16:20:43.327Z,100.00
2023-04-16T16:23:11.611Z,100.00
2023-04-16T16:25:39.661Z,100.00
2023-04-16T16:28:08.089Z,100.00
2023-04-16T16:30:37.374Z,100.00
2023-04-16T16:33:05.628Z,100.00
2023-04-16T16:35:33.810Z,100.00
2023-04-16T16:38:01.926Z,100.00
2023-04-16T16:40:30.353Z,100.00
2023-04-16T16:42:58.621Z,100.00
2023-04-16T16:45:27.287Z,100.00
2023-04-16T16:47:58.940Z,100.00
2023-04-16T16:50:27.009Z,100.00
2023-04-16T16:52:54.949Z,100.00
2023-04-16T16:55:23.212Z,100.00
2023-04-16T16:57:51.366Z,100.00
2023-04-16T17:00:21.767Z,100.00
2023-04-16T17:02:51.385Z,100.00
2023-04-16T17:05:21.332Z,100.00
2023-04-16T17:07:49.663Z,100.00
2023-04-16T17:10:20.543Z,100.00
2023-04-16T17:12:49.257Z,100.00
2023-04-16T17:15:21.199Z,100.00
2023-04-16T17:17:50.001Z,100.00
2023-04-16T17:20:18.161Z,100.00
2023-04-16T17:22:47.474Z,100.00
2023-04-16T17:25:15.920Z,100.00
2023-04-16T17:27:44.119Z,100.00
2023-04-16T17:30:12.739Z,100.00
2023-04-16T17:32:40.867Z,100.00
2023-04-16T17:35:11.085Z,100.00
2023-04-16T17:37:39.253Z,100.00
2023-04-16T17:40:10.246Z,100.00
2023-04-16T17:42:38.962Z,100.00
2023-04-16T17:45:09.826Z,100.00
2023-04-16T17:47:38.239Z,100.00
2023-04-16T17:50:07.583Z,100.00
2023-04-16T17:52:37.691Z,100.00
2023-04-16T17:55:06.105Z,100.00
2023-04-16T17:57:35.835Z,100.00
2023-04-16T18:00:05.754Z,100.00
2023-04-16T18:02:34.136Z,100.00
2023-04-16T18:05:02.326Z,100.00
2023-04-16T18:07:30.441Z,100.00
2023-04-16T18:09:58.784Z,100.00
2023-04-16T18:12:26.843Z,100.00
2023-04-16T18:14:56.355Z,100.00
2023-04-16T18:17:24.447Z,100.00
2023-04-16T18:19:52.655Z,100.00
2023-04-16T18:22:21.425Z,100.00
2023-04-16T18:24:49.661Z,100.00
2023-04-16T18:27:21.553Z,100.00
2023-04-16T18:29:50.176Z,100.00
2023-04-16T18:32:20.833Z,100.00
2023-04-16T18:34:49.297Z,100.00
2023-04-16T18:37:17.645Z,100.00
2023-04-16T18:39:45.886Z,100.00
2023-04-16T18:42:14.045Z,100.00
2023-04-16T18:44:42.447Z,100.00
2023-04-16T18:47:10.633Z,100.00
2023-04-16T18:49:40.142Z,100.00
2023-04-16T18:52:08.851Z,100.00
2023-04-16T18:54:38.084Z,100.00
2023-04-16T18:57:08.835Z,100.00
2023-04-16T18:59:37.003Z,100.00
2023-04-16T19:02:05.129Z,100.00
2023-04-16T19:04:33.294Z,100.00
2023-04-16T19:07:02.798Z,100.00
2023-04-16T19:09:31.121Z,100.00
2023-04-16T19:11:59.159Z,100.00
2023-04-16T19:14:27.361Z,100.00
2023-04-16T19:16:57.941Z,100.00
2023-04-16T19:19:25.940Z,100.00
2023-04-16T19:21:54.269Z,100.00
2023-04-16T19:24:23.732Z,100.00
2023-04-16T19:26:51.690Z,100.00
2023-04-16T19:29:19.670Z,100.00
2023-04-16T19:31:48.248Z,100.00
2023-04-16T19:34:16.847Z,100.00
2023-04-16T19:36:45.559Z,100.00
2023-04-16T19:39:13.580Z,100.00
2023-04-16T19:41:42.852Z,100.00
2023-04-16T19:44:11.089Z,100.00
2023-04-16T19:46:39.037Z,100.00
2023-04-16T19:49:07.419Z,100.00
2023-04-16T19:51:35.606Z,100.00
2023-04-16T19:54:03.577Z,100.00
2023-04-16T19:56:31.607Z,100.00
2023-04-16T19:59:02.174Z,100.00
2023-04-16T20:01:31.228Z,100.00
2023-04-16T20:03:59.296Z,100.00
2023-04-16T20:06:27.825Z,100.00
2023-04-16T20:08:56.746Z,100.00
2023-04-16T20:11:24.813Z,100.00
2023-04-16T20:13:53.062Z,100.00
2023-04-16T20:16:24.119Z,100.00
2023-04-16T20:18:54.350Z,100.00
2023-04-16T20:21:22.783Z,100.00
2023-04-16T20:23:50.745Z,100.00
2023-04-16T20:26:19.385Z,100.00
2023-04-16T20:28:47.602Z,100.00
2023-04-16T20:31:15.734Z,100.00
2023-04-16T20:33:45.024Z,100.00
2023-04-16T20:36:13.245Z,100.00
2023-04-16T20:38:42.435Z,100.00
2023-04-16T20:41:20.971Z,100.00
2023-04-16T20:43:53.045Z,100.00
2023-04-16T20:46:24.420Z,100.00
2023-04-16T20:48:54.080Z,100.00
2023-04-16T20:51:22.559Z,100.00
2023-04-16T20:53:52.268Z,100.00
2023-04-16T20:56:20.630Z,100.00
2023-04-16T20:58:48.697Z,100.00
2023-04-16T21:01:18.486Z,100.00
2023-04-16T21:03:46.709Z,100.00
2023-04-16T21:06:17.751Z,100.00
2023-04-16T21:08:45.776Z,100.00
2023-04-16T21:11:13.732Z,100.00
2023-04-16T21:13:41.750Z,100.00
2023-04-16T21:16:12.477Z,100.00
2023-04-16T21:18:40.875Z,100.00
2023-04-16T21:21:08.895Z,100.00
2023-04-16T21:23:38.398Z,100.00
2023-04-16T21:26:06.412Z,100.00
2023-04-16T21:28:34.382Z,100.00
2023-04-16T21:31:02.309Z,100.00
2023-04-16T21:33:30.603Z,100.00
2023-04-16T21:35:58.671Z,100.00
2023-04-16T21:38:26.671Z,100.00
2023-04-16T21:40:56.740Z,100.00
2023-04-16T21:43:25.159Z,100.00
2023-04-16T21:45:53.924Z,100.00
2023-04-16T21:48:21.903Z,100.00
2023-04-16T21:50:56.121Z,100.00
2023-04-16T21:53:24.063Z,100.00
2023-04-16T21:55:52.344Z,100.00
2023-04-16T21:58:21.769Z,100.00
2023-04-16T22:00:49.799Z,100.00
2023-04-16T22:03:18.757Z,100.00
2023-04-16T22:05:47.076Z,100.00
2023-04-16T22:08:24.035Z,100.00
2023-04-16T22:10:52.789Z,100.00
2023-04-16T22:13:22.843Z,100.00
2023-04-16T22:15:50.855Z,100.00
2023-04-16T22:18:19.057Z,100.00
2023-04-16T22:20:47.314Z,100.00
2023-04-16T22:23:15.879Z,100.00
2023-04-16T22:25:46.245Z,100.00
2023-04-16T22:28:14.215Z,100.00
2023-04-16T22:30:43.536Z,100.00
2023-04-16T22:33:11.579Z,100.00
2023-04-16T22:35:39.881Z,100.00
2023-04-16T22:38:07.837Z,100.00
2023-04-16T22:40:35.873Z,100.00
2023-04-16T22:43:03.806Z,100.00
2023-04-16T22:45:31.784Z,100.00
2023-04-16T22:48:01.214Z,100.00
2023-04-16T22:50:31.471Z,100.00
2023-04-16T22:52:59.535Z,100.00
2023-04-16T22:55:27.604Z,100.00
2023-04-16T22:57:55.646Z,100.00
2023-04-16T23:00:24.962Z,100.00
2023-04-16T23:02:53.038Z,100.00
2023-04-16T23:05:22.606Z,100.00
2023-04-16T23:07:50.621Z,100.00
2023-04-16T23:10:18.702Z,100.00
2023-04-16T23:12:46.683Z,100.00
2023-04-16T23:15:14.607Z,100.00
2023-04-16T23:17:42.683Z,100.00
2023-04-16T23:20:12.263Z,100.00
2023-04-16T23:22:41.898Z,100.00
2023-04-16T23:25:10.995Z,100.00
2023-04-16T23:27:39.073Z,100.00
2023-04-16T23:30:08.316Z,100.00
2023-04-16T23:32:36.331Z,100.00
2023-04-16T23:35:04.364Z,100.00
2023-04-16T23:37:32.449Z,100.00
2023-04-16T23:40:01.885Z,100.00
2023-04-16T23:42:29.834Z,100.00
2023-04-16T23:44:57.849Z,100.00
2023-04-16T23:47:25.830Z,100.00
2023-04-16T23:49:53.852Z,100.00
2023-04-16T23:52:21.972Z,100.00
2023-04-16T23:54:49.926Z,100.00
2023-04-16T23:57:19.183Z,100.00
2023-04-16T23:59:47.154Z,100.00
